sensor_id;sensor_type;location;lat;lon;timestamp;P1;durP1;ratioP1;P2;durP2;ratioP2
67041;SDS011;53949;47.790;18.750;2024-03-06T05:23:52;47.25;;;21.55;;
67041;SDS011;53949;47.790;18.750;2024-03-06T05:27:12;50.15;;;21.55;;
67041;SDS011;53949;47.790;18.750;2024-03-06T05:30:36;45.53;;;20.37;;
67041;SDS011;53949;47.790;18.750;2024-03-06T05:33:57;49.25;;;21.60;;
67041;SDS011;53949;47.790;18.750;2024-03-06T05:37:18;47.78;;;20.60;;
67041;SDS011;53949;47.790;18.750;2024-03-06T05:40:40;46.17;;;21.70;;
67041;SDS011;53949;47.790;18.750;2024-03-06T05:44:03;46.33;;;21.62;;
67041;SDS011;53949;47.790;18.750;2024-03-06T05:47:24;45.83;;;20.73;;
67041;SDS011;53949;47.790;18.750;2024-03-06T05:50:45;49.65;;;22.23;;
67041;SDS011;53949;47.790;18.750;2024-03-06T05:54:05;48.47;;;20.48;;
67041;SDS011;53949;47.790;18.750;2024-03-06T05:57:27;46.20;;;21.25;;
67041;SDS011;53949;47.790;18.750;2024-03-06T06:00:48;47.22;;;21.62;;
67041;SDS011;53949;47.790;18.750;2024-03-06T06:03:52;46.70;;;20.77;;
67041;SDS011;53949;47.790;18.750;2024-03-06T06:06:55;44.90;;;21.62;;
67041;SDS011;53949;47.790;18.750;2024-03-06T06:09:58;47.35;;;20.70;;
67041;SDS011;53949;47.790;18.750;2024-03-06T06:13:01;47.72;;;22.65;;
67041;SDS011;53949;47.790;18.750;2024-03-06T06:16:08;45.88;;;21.23;;
67041;SDS011;53949;47.790;18.750;2024-03-06T06:19:11;46.17;;;21.23;;
67041;SDS011;53949;47.790;18.750;2024-03-06T06:22:14;55.12;;;23.85;;
67041;SDS011;53949;47.790;18.750;2024-03-06T06:25:17;51.92;;;25.17;;
67041;SDS011;53949;47.790;18.750;2024-03-06T06:28:20;58.10;;;23.92;;
67041;SDS011;53949;47.790;18.750;2024-03-06T06:31:25;61.20;;;26.05;;
67041;SDS011;53949;47.790;18.750;2024-03-06T06:34:29;59.30;;;26.10;;
67041;SDS011;53949;47.790;18.750;2024-03-06T06:37:35;47.03;;;20.50;;
67041;SDS011;53949;47.790;18.750;2024-03-06T06:40:39;94.28;;;23.70;;
67041;SDS011;53949;47.790;18.750;2024-03-06T06:43:43;101.57;;;22.15;;
67041;SDS011;53949;47.790;18.750;2024-03-06T06:46:47;86.97;;;22.97;;
67041;SDS011;53949;47.790;18.750;2024-03-06T06:49:50;65.03;;;21.73;;
67041;SDS011;53949;47.790;18.750;2024-03-06T06:52:53;58.28;;;22.87;;
67041;SDS011;53949;47.790;18.750;2024-03-06T06:55:57;69.90;;;23.17;;
67041;SDS011;53949;47.790;18.750;2024-03-06T06:59:01;145.43;;;23.77;;
67041;SDS011;53949;47.790;18.750;2024-03-06T07:02:04;93.75;;;23.17;;
67041;SDS011;53949;47.790;18.750;2024-03-06T07:05:09;68.00;;;23.30;;
67041;SDS011;53949;47.790;18.750;2024-03-06T07:08:13;61.92;;;23.83;;
67041;SDS011;53949;47.790;18.750;2024-03-06T07:11:17;77.10;;;24.40;;
67041;SDS011;53949;47.790;18.750;2024-03-06T07:14:21;140.60;;;27.37;;
67041;SDS011;53949;47.790;18.750;2024-03-06T07:17:24;94.72;;;25.73;;
67041;SDS011;53949;47.790;18.750;2024-03-06T07:20:28;70.75;;;24.83;;
67041;SDS011;53949;47.790;18.750;2024-03-06T07:23:32;87.15;;;26.50;;
67041;SDS011;53949;47.790;18.750;2024-03-06T07:26:37;107.78;;;25.95;;
67041;SDS011;53949;47.790;18.750;2024-03-06T07:29:42;74.87;;;26.50;;
67041;SDS011;53949;47.790;18.750;2024-03-06T07:32:46;128.85;;;28.38;;
67041;SDS011;53949;47.790;18.750;2024-03-06T07:35:51;55.38;;;21.35;;
67041;SDS011;53949;47.790;18.750;2024-03-06T07:38:54;95.43;;;24.45;;
67041;SDS011;53949;47.790;18.750;2024-03-06T07:41:58;100.53;;;24.40;;
67041;SDS011;53949;47.790;18.750;2024-03-06T07:45:01;68.07;;;25.62;;
67041;SDS011;53949;47.790;18.750;2024-03-06T07:48:05;86.20;;;25.10;;
67041;SDS011;53949;47.790;18.750;2024-03-06T07:51:09;69.28;;;26.40;;
67041;SDS011;53949;47.790;18.750;2024-03-06T07:54:12;62.20;;;26.42;;
67041;SDS011;53949;47.790;18.750;2024-03-06T07:57:15;58.67;;;24.70;;
67041;SDS011;53949;47.790;18.750;2024-03-06T08:00:19;58.05;;;24.58;;
67041;SDS011;53949;47.790;18.750;2024-03-06T08:03:24;60.20;;;24.40;;
67041;SDS011;53949;47.790;18.750;2024-03-06T08:06:27;74.35;;;26.92;;
67041;SDS011;53949;47.790;18.750;2024-03-06T08:09:32;55.40;;;23.80;;
67041;SDS011;53949;47.790;18.750;2024-03-06T08:12:35;60.00;;;26.98;;
67041;SDS011;53949;47.790;18.750;2024-03-06T08:15:38;52.62;;;24.37;;
67041;SDS011;53949;47.790;18.750;2024-03-06T08:18:42;56.72;;;25.08;;
67041;SDS011;53949;47.790;18.750;2024-03-06T08:21:45;52.53;;;23.25;;
67041;SDS011;53949;47.790;18.750;2024-03-06T08:24:50;55.42;;;23.67;;
67041;SDS011;53949;47.790;18.750;2024-03-06T08:27:53;53.67;;;24.15;;
67041;SDS011;53949;47.790;18.750;2024-03-06T08:30:57;52.78;;;24.80;;
67041;SDS011;53949;47.790;18.750;2024-03-06T08:34:00;47.92;;;24.08;;
67041;SDS011;53949;47.790;18.750;2024-03-06T08:37:03;49.53;;;24.25;;
67041;SDS011;53949;47.790;18.750;2024-03-06T08:40:07;47.15;;;21.42;;
67041;SDS011;53949;47.790;18.750;2024-03-06T08:43:13;50.15;;;23.62;;
67041;SDS011;53949;47.790;18.750;2024-03-06T08:46:18;49.70;;;23.87;;
67041;SDS011;53949;47.790;18.750;2024-03-06T08:49:22;43.90;;;22.30;;
67041;SDS011;53949;47.790;18.750;2024-03-06T08:52:25;48.63;;;23.80;;
67041;SDS011;53949;47.790;18.750;2024-03-06T08:55:28;43.30;;;23.08;;
67041;SDS011;53949;47.790;18.750;2024-03-06T08:58:32;49.88;;;24.87;;
67041;SDS011;53949;47.790;18.750;2024-03-06T09:01:35;53.65;;;24.75;;
67041;SDS011;53949;47.790;18.750;2024-03-06T09:04:38;44.38;;;23.83;;
67041;SDS011;53949;47.790;18.750;2024-03-06T09:07:41;52.62;;;23.25;;
67041;SDS011;53949;47.790;18.750;2024-03-06T09:10:45;49.80;;;23.52;;
67041;SDS011;53949;47.790;18.750;2024-03-06T09:13:50;46.63;;;23.87;;
67041;SDS011;53949;47.790;18.750;2024-03-06T09:16:53;49.97;;;23.85;;
67041;SDS011;53949;47.790;18.750;2024-03-06T09:19:58;52.10;;;24.45;;
67041;SDS011;53949;47.790;18.750;2024-03-06T09:23:11;49.20;;;23.02;;
67041;SDS011;53949;47.790;18.750;2024-03-06T09:26:14;46.83;;;24.05;;
67041;SDS011;53949;47.790;18.750;2024-03-06T09:29:18;46.80;;;22.90;;
67041;SDS011;53949;47.790;18.750;2024-03-06T09:32:21;46.13;;;22.87;;
67041;SDS011;53949;47.790;18.750;2024-03-06T09:35:26;46.17;;;22.77;;
67041;SDS011;53949;47.790;18.750;2024-03-06T09:38:29;47.75;;;22.40;;
67041;SDS011;53949;47.790;18.750;2024-03-06T09:41:33;45.83;;;23.48;;
67041;SDS011;53949;47.790;18.750;2024-03-06T09:44:36;52.03;;;22.23;;
67041;SDS011;53949;47.790;18.750;2024-03-06T09:47:39;40.63;;;20.55;;
67041;SDS011;53949;47.790;18.750;2024-03-06T09:50:43;44.50;;;23.15;;
67041;SDS011;53949;47.790;18.750;2024-03-06T09:53:49;42.70;;;21.45;;
67041;SDS011;53949;47.790;18.750;2024-03-06T09:56:54;45.22;;;20.73;;
67041;SDS011;53949;47.790;18.750;2024-03-06T09:59:59;40.55;;;20.05;;
67041;SDS011;53949;47.790;18.750;2024-03-06T10:03:13;46.28;;;23.17;;
67041;SDS011;53949;47.790;18.750;2024-03-06T10:06:17;42.92;;;21.42;;
67041;SDS011;53949;47.790;18.750;2024-03-06T10:09:20;38.92;;;20.50;;
67041;SDS011;53949;47.790;18.750;2024-03-06T10:12:24;35.97;;;19.83;;
67041;SDS011;53949;47.790;18.750;2024-03-06T10:15:28;34.20;;;19.58;;
67041;SDS011;53949;47.790;18.750;2024-03-06T10:18:32;34.72;;;17.55;;
67041;SDS011;53949;47.790;18.750;2024-03-06T10:21:35;34.35;;;18.23;;
67041;SDS011;53949;47.790;18.750;2024-03-06T10:24:39;32.95;;;17.95;;
67041;SDS011;53949;47.790;18.750;2024-03-06T10:27:42;32.35;;;18.20;;
67041;SDS011;53949;47.790;18.750;2024-03-06T10:30:46;34.78;;;18.58;;
67041;SDS011;53949;47.790;18.750;2024-03-06T10:33:49;32.17;;;18.83;;
67041;SDS011;53949;47.790;18.750;2024-03-06T10:36:56;31.83;;;17.70;;
67041;SDS011;53949;47.790;18.750;2024-03-06T10:40:01;31.95;;;17.12;;
67041;SDS011;53949;47.790;18.750;2024-03-06T10:43:09;29.40;;;17.37;;
67041;SDS011;53949;47.790;18.750;2024-03-06T10:46:13;32.65;;;17.77;;
67041;SDS011;53949;47.790;18.750;2024-03-06T10:49:17;28.73;;;16.33;;
67041;SDS011;53949;47.790;18.750;2024-03-06T10:52:21;31.87;;;16.17;;
67041;SDS011;53949;47.790;18.750;2024-03-06T10:55:25;27.08;;;16.33;;
67041;SDS011;53949;47.790;18.750;2024-03-06T10:58:30;31.55;;;16.90;;
67041;SDS011;53949;47.790;18.750;2024-03-06T11:01:33;30.85;;;17.30;;
67041;SDS011;53949;47.790;18.750;2024-03-06T11:07:44;29.55;;;16.20;;
67041;SDS011;53949;47.790;18.750;2024-03-06T11:10:48;26.15;;;14.50;;
67041;SDS011;53949;47.790;18.750;2024-03-06T11:13:55;29.95;;;15.73;;
67041;SDS011;53949;47.790;18.750;2024-03-06T11:23:15;26.73;;;15.52;;
67041;SDS011;53949;47.790;18.750;2024-03-06T11:26:18;24.42;;;14.68;;
67041;SDS011;53949;47.790;18.750;2024-03-06T11:29:23;25.00;;;14.95;;
67041;SDS011;53949;47.790;18.750;2024-03-06T11:32:27;21.87;;;14.35;;
67041;SDS011;53949;47.790;18.750;2024-03-06T11:35:30;24.58;;;14.95;;
67041;SDS011;53949;47.790;18.750;2024-03-06T11:38:37;25.00;;;15.20;;
67041;SDS011;53949;47.790;18.750;2024-03-06T11:44:53;24.87;;;13.80;;
67041;SDS011;53949;47.790;18.750;2024-03-06T11:48:02;21.67;;;13.27;;
67041;SDS011;53949;47.790;18.750;2024-03-06T11:51:06;27.67;;;16.80;;
67041;SDS011;53949;47.790;18.750;2024-03-06T11:54:09;27.95;;;14.13;;
67041;SDS011;53949;47.790;18.750;2024-03-06T12:00:23;24.20;;;12.80;;
67041;SDS011;53949;47.790;18.750;2024-03-06T12:03:28;23.92;;;14.73;;
67041;SDS011;53949;47.790;18.750;2024-03-06T12:06:34;27.23;;;15.30;;
67041;SDS011;53949;47.790;18.750;2024-03-06T12:09:39;22.00;;;12.75;;
67041;SDS011;53949;47.790;18.750;2024-03-06T12:12:45;22.73;;;13.40;;
67041;SDS011;53949;47.790;18.750;2024-03-06T12:15:48;21.85;;;13.50;;
67041;SDS011;53949;47.790;18.750;2024-03-06T12:18:58;22.50;;;13.50;;
67041;SDS011;53949;47.790;18.750;2024-03-06T12:22:05;25.98;;;14.57;;
67041;SDS011;53949;47.790;18.750;2024-03-06T12:25:09;24.23;;;15.48;;
67041;SDS011;53949;47.790;18.750;2024-03-06T12:28:13;21.02;;;11.48;;
67041;SDS011;53949;47.790;18.750;2024-03-06T12:31:16;20.37;;;13.62;;
67041;SDS011;53949;47.790;18.750;2024-03-06T12:34:21;25.67;;;14.23;;
67041;SDS011;53949;47.790;18.750;2024-03-06T12:37:28;20.83;;;13.38;;
67041;SDS011;53949;47.790;18.750;2024-03-06T12:40:38;25.83;;;14.60;;
67041;SDS011;53949;47.790;18.750;2024-03-06T12:43:42;23.90;;;14.57;;
67041;SDS011;53949;47.790;18.750;2024-03-06T12:46:47;21.55;;;13.20;;
67041;SDS011;53949;47.790;18.750;2024-03-06T12:49:50;20.20;;;13.13;;
67041;SDS011;53949;47.790;18.750;2024-03-06T12:52:54;20.10;;;14.13;;
67041;SDS011;53949;47.790;18.750;2024-03-06T12:55:57;23.62;;;14.07;;
67041;SDS011;53949;47.790;18.750;2024-03-06T12:59:02;21.75;;;14.45;;
67041;SDS011;53949;47.790;18.750;2024-03-06T13:02:05;19.05;;;13.48;;
67041;SDS011;53949;47.790;18.750;2024-03-06T13:05:08;23.40;;;13.80;;
67041;SDS011;53949;47.790;18.750;2024-03-06T13:08:11;23.17;;;14.43;;
67041;SDS011;53949;47.790;18.750;2024-03-06T13:11:18;22.98;;;13.52;;
67041;SDS011;53949;47.790;18.750;2024-03-06T13:14:23;27.60;;;14.07;;
67041;SDS011;53949;47.790;18.750;2024-03-06T13:17:26;22.92;;;13.80;;
67041;SDS011;53949;47.790;18.750;2024-03-06T13:20:32;21.10;;;13.15;;
67041;SDS011;53949;47.790;18.750;2024-03-06T13:23:36;17.62;;;11.45;;
67041;SDS011;53949;47.790;18.750;2024-03-06T13:26:40;21.55;;;12.18;;
67041;SDS011;53949;47.790;18.750;2024-03-06T13:29:44;18.55;;;12.25;;
67041;SDS011;53949;47.790;18.750;2024-03-06T13:32:47;16.48;;;11.23;;
67041;SDS011;53949;47.790;18.750;2024-03-06T13:35:51;18.85;;;12.70;;
67041;SDS011;53949;47.790;18.750;2024-03-06T13:38:57;19.77;;;12.90;;
67041;SDS011;53949;47.790;18.750;2024-03-06T13:42:00;21.23;;;13.35;;
67041;SDS011;53949;47.790;18.750;2024-03-06T13:45:04;20.23;;;11.38;;
67041;SDS011;53949;47.790;18.750;2024-03-06T13:48:13;19.80;;;11.50;;
67041;SDS011;53949;47.790;18.750;2024-03-06T13:51:18;18.33;;;11.95;;
67041;SDS011;53949;47.790;18.750;2024-03-06T13:54:22;21.90;;;12.20;;
67041;SDS011;53949;47.790;18.750;2024-03-06T13:57:25;16.25;;;10.43;;
67041;SDS011;53949;47.790;18.750;2024-03-06T14:03:34;16.70;;;10.27;;
67041;SDS011;53949;47.790;18.750;2024-03-06T14:06:40;18.65;;;9.98;;
67041;SDS011;53949;47.790;18.750;2024-03-06T14:09:43;12.05;;;8.07;;
67041;SDS011;53949;47.790;18.750;2024-03-06T14:12:47;12.75;;;8.57;;
67041;SDS011;53949;47.790;18.750;2024-03-06T14:15:55;13.40;;;8.00;;
67041;SDS011;53949;47.790;18.750;2024-03-06T14:18:58;16.35;;;8.98;;
67041;SDS011;53949;47.790;18.750;2024-03-06T14:22:01;13.02;;;8.18;;
67041;SDS011;53949;47.790;18.750;2024-03-06T14:25:07;11.70;;;8.18;;
67041;SDS011;53949;47.790;18.750;2024-03-06T14:28:12;13.83;;;8.43;;
67041;SDS011;53949;47.790;18.750;2024-03-06T14:31:15;13.45;;;8.13;;
67041;SDS011;53949;47.790;18.750;2024-03-06T14:34:19;12.70;;;8.88;;
67041;SDS011;53949;47.790;18.750;2024-03-06T14:37:22;13.97;;;8.70;;
67041;SDS011;53949;47.790;18.750;2024-03-06T14:40:25;14.73;;;9.77;;
67041;SDS011;53949;47.790;18.750;2024-03-06T14:43:28;11.93;;;9.07;;
67041;SDS011;53949;47.790;18.750;2024-03-06T14:46:31;12.75;;;9.50;;
67041;SDS011;53949;47.790;18.750;2024-03-06T14:49:35;13.43;;;9.00;;
67041;SDS011;53949;47.790;18.750;2024-03-06T14:52:39;13.62;;;9.57;;
67041;SDS011;53949;47.790;18.750;2024-03-06T14:55:42;11.50;;;8.40;;
67041;SDS011;53949;47.790;18.750;2024-03-06T14:58:47;11.90;;;8.32;;
67041;SDS011;53949;47.790;18.750;2024-03-06T15:01:51;11.02;;;7.55;;
67041;SDS011;53949;47.790;18.750;2024-03-06T15:04:54;11.82;;;8.18;;
67041;SDS011;53949;47.790;18.750;2024-03-06T15:07:57;12.93;;;7.97;;
67041;SDS011;53949;47.790;18.750;2024-03-06T15:11:01;12.67;;;8.03;;
67041;SDS011;53949;47.790;18.750;2024-03-06T15:14:04;14.70;;;7.70;;
67041;SDS011;53949;47.790;18.750;2024-03-06T15:17:07;12.55;;;8.02;;
67041;SDS011;53949;47.790;18.750;2024-03-06T15:20:10;14.07;;;8.75;;
67041;SDS011;53949;47.790;18.750;2024-03-06T15:23:14;16.73;;;8.95;;
67041;SDS011;53949;47.790;18.750;2024-03-06T15:26:20;15.20;;;8.95;;
67041;SDS011;53949;47.790;18.750;2024-03-06T15:29:23;16.20;;;8.65;;
67041;SDS011;53949;47.790;18.750;2024-03-06T15:32:27;13.30;;;8.73;;
67041;SDS011;53949;47.790;18.750;2024-03-06T15:35:30;14.25;;;8.27;;
67041;SDS011;53949;47.790;18.750;2024-03-06T15:38:33;15.13;;;8.73;;
67041;SDS011;53949;47.790;18.750;2024-03-06T15:41:37;11.82;;;7.12;;
67041;SDS011;53949;47.790;18.750;2024-03-06T15:44:40;12.32;;;7.40;;
67041;SDS011;53949;47.790;18.750;2024-03-06T15:50:49;11.40;;;7.22;;
67041;SDS011;53949;47.790;18.750;2024-03-06T15:53:53;12.95;;;7.18;;
67041;SDS011;53949;47.790;18.750;2024-03-06T15:56:56;10.90;;;7.57;;
67041;SDS011;53949;47.790;18.750;2024-03-06T16:00:01;13.27;;;8.02;;
67041;SDS011;53949;47.790;18.750;2024-03-06T16:03:10;11.82;;;8.02;;
67041;SDS011;53949;47.790;18.750;2024-03-06T16:06:13;13.85;;;8.20;;
67041;SDS011;53949;47.790;18.750;2024-03-06T16:09:21;17.12;;;9.38;;
67041;SDS011;53949;47.790;18.750;2024-03-06T16:12:24;14.35;;;9.05;;
67041;SDS011;53949;47.790;18.750;2024-03-06T16:15:28;12.32;;;8.35;;
67041;SDS011;53949;47.790;18.750;2024-03-06T16:18:31;14.87;;;8.40;;
67041;SDS011;53949;47.790;18.750;2024-03-06T16:21:34;13.77;;;9.02;;
67041;SDS011;53949;47.790;18.750;2024-03-06T16:24:40;15.85;;;9.07;;
67041;SDS011;53949;47.790;18.750;2024-03-06T16:27:43;13.27;;;8.93;;
67041;SDS011;53949;47.790;18.750;2024-03-06T16:30:46;17.23;;;9.35;;
67041;SDS011;53949;47.790;18.750;2024-03-06T16:33:49;15.38;;;9.38;;
67041;SDS011;53949;47.790;18.750;2024-03-06T16:36:52;12.43;;;8.55;;
67041;SDS011;53949;47.790;18.750;2024-03-06T16:39:55;13.77;;;8.75;;
67041;SDS011;53949;47.790;18.750;2024-03-06T16:43:00;15.90;;;9.48;;
67041;SDS011;53949;47.790;18.750;2024-03-06T16:46:03;17.52;;;9.30;;
67041;SDS011;53949;47.790;18.750;2024-03-06T16:49:08;18.20;;;9.65;;
67041;SDS011;53949;47.790;18.750;2024-03-06T16:52:12;20.55;;;10.63;;
67041;SDS011;53949;47.790;18.750;2024-03-06T16:55:16;20.90;;;11.55;;
67041;SDS011;53949;47.790;18.750;2024-03-06T16:58:20;17.67;;;10.15;;
67041;SDS011;53949;47.790;18.750;2024-03-06T17:01:24;20.70;;;9.93;;
67041;SDS011;53949;47.790;18.750;2024-03-06T17:04:28;16.15;;;9.25;;
67041;SDS011;53949;47.790;18.750;2024-03-06T17:07:32;16.65;;;9.27;;
67041;SDS011;53949;47.790;18.750;2024-03-06T17:10:35;25.40;;;12.63;;
67041;SDS011;53949;47.790;18.750;2024-03-06T17:13:39;26.23;;;13.73;;
67041;SDS011;53949;47.790;18.750;2024-03-06T17:16:41;24.15;;;13.95;;
67041;SDS011;53949;47.790;18.750;2024-03-06T17:19:45;40.30;;;19.77;;
67041;SDS011;53949;47.790;18.750;2024-03-06T17:22:48;48.90;;;25.70;;
67041;SDS011;53949;47.790;18.750;2024-03-06T17:25:53;29.65;;;17.62;;
67041;SDS011;53949;47.790;18.750;2024-03-06T17:28:58;22.77;;;11.43;;
67041;SDS011;53949;47.790;18.750;2024-03-06T17:32:02;18.10;;;10.32;;
67041;SDS011;53949;47.790;18.750;2024-03-06T17:35:05;19.92;;;12.10;;
67041;SDS011;53949;47.790;18.750;2024-03-06T17:38:14;17.15;;;10.85;;
67041;SDS011;53949;47.790;18.750;2024-03-06T17:41:19;34.03;;;17.35;;
67041;SDS011;53949;47.790;18.750;2024-03-06T17:44:22;41.10;;;20.05;;
67041;SDS011;53949;47.790;18.750;2024-03-06T17:47:25;27.20;;;14.50;;
67041;SDS011;53949;47.790;18.750;2024-03-06T17:50:30;22.75;;;12.02;;
67041;SDS011;53949;47.790;18.750;2024-03-06T17:53:36;21.85;;;11.60;;
67041;SDS011;53949;47.790;18.750;2024-03-06T17:56:39;23.70;;;12.25;;
67041;SDS011;53949;47.790;18.750;2024-03-06T17:59:43;22.87;;;12.10;;
67041;SDS011;53949;47.790;18.750;2024-03-06T18:02:48;25.43;;;13.17;;
67041;SDS011;53949;47.790;18.750;2024-03-06T18:05:51;23.65;;;12.90;;
67041;SDS011;53949;47.790;18.750;2024-03-06T18:08:54;30.65;;;13.45;;
67041;SDS011;53949;47.790;18.750;2024-03-06T18:11:57;26.50;;;13.32;;
67041;SDS011;53949;47.790;18.750;2024-03-06T18:15:02;24.58;;;13.52;;
67041;SDS011;53949;47.790;18.750;2024-03-06T18:18:05;27.90;;;14.18;;
67041;SDS011;53949;47.790;18.750;2024-03-06T18:21:09;29.33;;;14.85;;
67041;SDS011;53949;47.790;18.750;2024-03-06T18:24:12;27.27;;;13.45;;
67041;SDS011;53949;47.790;18.750;2024-03-06T18:27:17;27.58;;;13.93;;
67041;SDS011;53949;47.790;18.750;2024-03-06T18:30:21;39.38;;;19.65;;
67041;SDS011;53949;47.790;18.750;2024-03-06T18:33:24;43.90;;;18.05;;
67041;SDS011;53949;47.790;18.750;2024-03-06T18:36:28;29.02;;;14.90;;
67041;SDS011;53949;47.790;18.750;2024-03-06T18:39:32;32.17;;;14.65;;
67041;SDS011;53949;47.790;18.750;2024-03-06T18:42:35;25.48;;;12.82;;
67041;SDS011;53949;47.790;18.750;2024-03-06T18:45:40;31.33;;;13.13;;
67041;SDS011;53949;47.790;18.750;2024-03-06T18:48:48;29.63;;;13.27;;
67041;SDS011;53949;47.790;18.750;2024-03-06T18:51:52;31.65;;;14.07;;
67041;SDS011;53949;47.790;18.750;2024-03-06T18:54:55;23.27;;;12.37;;
67041;SDS011;53949;47.790;18.750;2024-03-06T19:01:04;28.95;;;13.25;;
67041;SDS011;53949;47.790;18.750;2024-03-06T19:04:09;27.60;;;13.32;;
67041;SDS011;53949;47.790;18.750;2024-03-06T19:07:13;60.47;;;27.40;;
67041;SDS011;53949;47.790;18.750;2024-03-06T19:10:22;26.20;;;15.40;;
67041;SDS011;53949;47.790;18.750;2024-03-06T19:13:27;16.03;;;8.97;;
67041;SDS011;53949;47.790;18.750;2024-03-06T19:16:30;11.80;;;6.87;;
67041;SDS011;53949;47.790;18.750;2024-03-06T19:19:33;17.67;;;8.27;;
67041;SDS011;53949;47.790;18.750;2024-03-06T19:22:36;22.35;;;11.27;;
67041;SDS011;53949;47.790;18.750;2024-03-06T19:25:40;31.00;;;14.05;;
67041;SDS011;53949;47.790;18.750;2024-03-06T19:28:42;24.00;;;12.20;;
67041;SDS011;53949;47.790;18.750;2024-03-06T19:31:46;21.98;;;13.32;;
67041;SDS011;53949;47.790;18.750;2024-03-06T19:34:49;25.88;;;12.15;;
67041;SDS011;53949;47.790;18.750;2024-03-06T19:37:52;26.45;;;13.27;;
67041;SDS011;53949;47.790;18.750;2024-03-06T19:40:59;42.40;;;22.10;;
67041;SDS011;53949;47.790;18.750;2024-03-06T19:44:02;49.10;;;23.43;;
67041;SDS011;53949;47.790;18.750;2024-03-06T19:47:08;94.72;;;51.70;;
67041;SDS011;53949;47.790;18.750;2024-03-06T19:50:12;39.10;;;23.58;;
67041;SDS011;53949;47.790;18.750;2024-03-06T19:53:15;20.50;;;11.32;;
67041;SDS011;53949;47.790;18.750;2024-03-06T19:56:18;155.18;;;62.60;;
67041;SDS011;53949;47.790;18.750;2024-03-06T19:59:22;123.20;;;50.88;;
67041;SDS011;53949;47.790;18.750;2024-03-06T20:02:25;53.10;;;26.70;;
67041;SDS011;53949;47.790;18.750;2024-03-06T20:05:29;20.83;;;12.43;;
67041;SDS011;53949;47.790;18.750;2024-03-06T20:08:33;14.70;;;9.23;;
67041;SDS011;53949;47.790;18.750;2024-03-06T20:11:37;6.45;;;4.65;;
67041;SDS011;53949;47.790;18.750;2024-03-06T20:14:40;6.57;;;4.75;;
67041;SDS011;53949;47.790;18.750;2024-03-06T20:17:43;6.68;;;4.50;;
67041;SDS011;53949;47.790;18.750;2024-03-06T20:20:47;9.98;;;5.35;;
67041;SDS011;53949;47.790;18.750;2024-03-06T20:23:50;24.90;;;12.45;;
67041;SDS011;53949;47.790;18.750;2024-03-06T20:26:53;19.92;;;11.63;;
67041;SDS011;53949;47.790;18.750;2024-03-06T20:29:57;30.85;;;12.88;;
67041;SDS011;53949;47.790;18.750;2024-03-06T20:33:04;27.70;;;13.02;;
67041;SDS011;53949;47.790;18.750;2024-03-06T20:36:08;28.70;;;13.93;;
67041;SDS011;53949;47.790;18.750;2024-03-06T20:39:11;25.05;;;14.35;;
67041;SDS011;53949;47.790;18.750;2024-03-06T20:42:18;32.70;;;15.95;;
67041;SDS011;53949;47.790;18.750;2024-03-06T20:45:21;23.77;;;13.55;;
67041;SDS011;53949;47.790;18.750;2024-03-06T20:48:25;23.50;;;12.85;;
67041;SDS011;53949;47.790;18.750;2024-03-06T20:51:29;27.98;;;12.88;;
67041;SDS011;53949;47.790;18.750;2024-03-06T20:54:33;26.00;;;12.40;;
67041;SDS011;53949;47.790;18.750;2024-03-06T20:57:36;24.85;;;11.88;;
67041;SDS011;53949;47.790;18.750;2024-03-06T21:00:39;26.20;;;13.57;;
67041;SDS011;53949;47.790;18.750;2024-03-06T21:03:42;24.25;;;11.85;;
67041;SDS011;53949;47.790;18.750;2024-03-06T21:06:46;21.50;;;11.63;;
67041;SDS011;53949;47.790;18.750;2024-03-06T21:09:50;26.45;;;14.60;;
67041;SDS011;53949;47.790;18.750;2024-03-06T21:12:53;27.33;;;14.00;;
67041;SDS011;53949;47.790;18.750;2024-03-06T21:15:56;34.88;;;16.58;;
67041;SDS011;53949;47.790;18.750;2024-03-06T21:18:59;22.77;;;12.73;;
67041;SDS011;53949;47.790;18.750;2024-03-06T21:22:03;29.98;;;16.83;;
67041;SDS011;53949;47.790;18.750;2024-03-06T21:25:09;53.63;;;29.33;;
67041;SDS011;53949;47.790;18.750;2024-03-06T21:28:13;63.45;;;30.23;;
67041;SDS011;53949;47.790;18.750;2024-03-06T21:31:16;42.42;;;21.00;;
67041;SDS011;53949;47.790;18.750;2024-03-06T21:34:19;32.80;;;16.73;;
67041;SDS011;53949;47.790;18.750;2024-03-06T21:37:23;28.15;;;12.93;;
67041;SDS011;53949;47.790;18.750;2024-03-06T21:40:26;22.27;;;11.85;;
67041;SDS011;53949;47.790;18.750;2024-03-06T21:43:31;23.12;;;12.27;;
67041;SDS011;53949;47.790;18.750;2024-03-06T21:49:40;18.45;;;8.15;;
67041;SDS011;53949;47.790;18.750;2024-03-06T21:52:44;20.15;;;10.07;;
67041;SDS011;53949;47.790;18.750;2024-03-06T21:55:49;20.33;;;11.10;;
67041;SDS011;53949;47.790;18.750;2024-03-06T21:58:54;24.17;;;12.32;;
67041;SDS011;53949;47.790;18.750;2024-03-06T22:01:58;23.27;;;12.50;;
67041;SDS011;53949;47.790;18.750;2024-03-06T22:05:02;30.15;;;13.80;;
67041;SDS011;53949;47.790;18.750;2024-03-06T22:08:05;26.05;;;14.07;;
67041;SDS011;53949;47.790;18.750;2024-03-06T22:11:11;25.40;;;13.77;;
67041;SDS011;53949;47.790;18.750;2024-03-06T22:14:14;29.58;;;14.85;;
67041;SDS011;53949;47.790;18.750;2024-03-06T22:17:19;34.38;;;16.37;;
67041;SDS011;53949;47.790;18.750;2024-03-06T22:20:22;30.67;;;16.20;;
67041;SDS011;53949;47.790;18.750;2024-03-06T22:23:25;31.37;;;15.35;;
67041;SDS011;53949;47.790;18.750;2024-03-06T22:26:34;24.98;;;13.82;;
67041;SDS011;53949;47.790;18.750;2024-03-06T22:29:38;26.42;;;12.85;;
67041;SDS011;53949;47.790;18.750;2024-03-06T22:32:41;26.58;;;12.82;;
67041;SDS011;53949;47.790;18.750;2024-03-06T22:35:44;26.23;;;13.60;;
67041;SDS011;53949;47.790;18.750;2024-03-06T22:38:47;25.62;;;13.05;;
67041;SDS011;53949;47.790;18.750;2024-03-06T22:41:51;26.12;;;13.13;;
67041;SDS011;53949;47.790;18.750;2024-03-06T22:44:53;25.05;;;13.35;;
67041;SDS011;53949;47.790;18.750;2024-03-06T22:47:57;26.62;;;12.43;;
67041;SDS011;53949;47.790;18.750;2024-03-06T22:50:59;22.45;;;12.90;;
67041;SDS011;53949;47.790;18.750;2024-03-06T22:54:03;26.85;;;12.48;;
67041;SDS011;53949;47.790;18.750;2024-03-06T22:57:06;24.40;;;12.18;;
67041;SDS011;53949;47.790;18.750;2024-03-06T23:00:09;23.02;;;13.10;;
67041;SDS011;53949;47.790;18.750;2024-03-06T23:03:32;23.58;;;12.93;;
67041;SDS011;53949;47.790;18.750;2024-03-06T23:06:35;26.25;;;12.20;;
67041;SDS011;53949;47.790;18.750;2024-03-06T23:09:38;24.08;;;12.43;;
67041;SDS011;53949;47.790;18.750;2024-03-06T23:12:42;23.98;;;13.07;;
67041;SDS011;53949;47.790;18.750;2024-03-06T23:18:51;25.98;;;12.48;;
67041;SDS011;53949;47.790;18.750;2024-03-06T23:21:54;26.35;;;13.38;;
67041;SDS011;53949;47.790;18.750;2024-03-06T23:25:00;24.05;;;12.75;;
67041;SDS011;53949;47.790;18.750;2024-03-06T23:28:03;25.15;;;13.00;;
67041;SDS011;53949;47.790;18.750;2024-03-06T23:31:07;25.15;;;12.27;;
67041;SDS011;53949;47.790;18.750;2024-03-06T23:34:10;23.85;;;12.77;;
67041;SDS011;53949;47.790;18.750;2024-03-06T23:37:14;26.60;;;13.45;;
67041;SDS011;53949;47.790;18.750;2024-03-06T23:40:17;47.28;;;21.30;;